Time;durP1;ratioP1;P1;durP2;ratioP2;P2;SDS_P1;SDS_P2;PMS_P1;PMS_P2;Temp;Humidity;BMP_temperature;BMP_pressure;BME280_temperature;BME280_humidity;BME280_pressure;Samples;Min_cycle;Max_cycle;Signal;HPM_P1;HPM_P2
2022/05/16 00:00:00;;;;;;;;;;;18.60;99.90;;;;;;5025883;28;19984;-66
2022/05/16 00:02:25;;;;;;;;;;;18.60;99.90;;;;;;5027655;28;20048;-67
2022/05/16 00:04:51;;;;;;;;;;;18.60;99.90;;;;;;5030167;28;20337;-67
2022/05/16 00:07:18;;;;;;;;;;;18.60;99.90;;;;;;5026398;28;20377;-67
2022/05/16 00:09:44;;;;;;;;;;;18.60;99.90;;;;;;5029805;28;19944;-68
2022/05/16 00:12:10;;;;;;;;;;;18.60;99.90;;;;;;5034511;28;20374;-70
2022/05/16 00:14:37;;;;;;;;;;;18.60;99.90;;;;;;5044631;28;19921;-69
2022/05/16 00:17:03;;;;;;;;;;;18.60;99.90;;;;;;5050361;28;20286;-69
2022/05/16 00:19:29;;;;;;;;;;;18.60;99.90;;;;;;5026162;28;19940;-69
2022/05/16 00:21:55;;;;;;;;;;;18.60;99.90;;;;;;5028164;28;19967;-69
2022/05/16 00:24:26;;;;;;;;;;;18.60;99.90;;;;;;5025506;28;19917;-69
2022/05/16 00:26:55;;;;;;;;;;;18.60;99.90;;;;;;5026519;28;20342;-68
2022/05/16 00:29:21;;;;;;;;;;;18.60;99.90;;;;;;5027517;28;19921;-68
2022/05/16 00:31:46;;;;;;;;;;;18.60;99.90;;;;;;5040866;28;19915;-68
2022/05/16 00:34:12;;;;;;;;;;;18.60;99.90;;;;;;5027562;28;19940;-68
2022/05/16 00:36:37;;;;;;;;;;;18.70;99.90;;;;;;5026173;28;20325;-68
2022/05/16 00:39:03;;;;;;;;;;;18.70;99.90;;;;;;5029223;28;20297;-68
2022/05/16 00:41:28;;;;;;;;;;;18.70;99.90;;;;;;5027416;28;19914;-68
2022/05/16 00:43:56;;;;;;;;;;;18.60;99.90;;;;;;5029632;28;19939;-68
2022/05/16 00:46:23;;;;;;;;;;;18.60;99.90;;;;;;5029961;28;19913;-67
2022/05/16 00:48:49;;;;;;;;;;;18.60;99.90;;;;;;5034129;28;19929;-68
2022/05/16 00:51:25;;;;;;;;;;;18.60;99.90;;;;;;5029132;28;19913;-68
2022/05/16 00:53:54;;;;;;;;;;;18.60;99.90;;;;;;5032819;28;19936;-67
2022/05/16 00:56:20;;;;;;;;;;;18.60;99.90;;;;;;5031765;28;19910;-66
2022/05/16 00:58:46;;;;;;;;;;;18.60;99.90;;;;;;5036695;28;19919;-68
2022/05/16 01:06:40;;;;;;;;;;;18.60;99.90;;;;;;5025420;28;19940;-67
2022/05/16 01:09:06;;;;;;;;;;;18.60;99.90;;;;;;5029264;28;19921;-67
2022/05/16 01:11:33;;;;;;;;;;;18.60;99.90;;;;;;5033561;28;20475;-68
2022/05/16 01:13:59;;;;;;;;;;;18.60;99.90;;;;;;5032765;28;19979;-67
2022/05/16 01:16:24;;;;;;;;;;;18.60;99.90;;;;;;5029789;28;20366;-68
2022/05/16 01:18:49;;;;;;;;;;;18.60;99.90;;;;;;5034007;28;19913;-69
2022/05/16 01:21:35;;;;;;;;;;;18.60;99.90;;;;;;5030729;28;19921;-68
2022/05/16 01:24:03;;;;;;;;;;;18.60;99.90;;;;;;5033932;28;19919;-66
2022/05/16 01:26:30;;;;;;;;;;;18.60;99.90;;;;;;5029596;28;19924;-68
2022/05/16 01:28:56;;;;;;;;;;;18.50;99.90;;;;;;5033321;28;19960;-68
2022/05/16 01:31:22;;;;;;;;;;;18.50;99.90;;;;;;5033495;28;19917;-67
2022/05/16 01:33:47;;;;;;;;;;;18.50;99.90;;;;;;5034240;28;19924;-68
2022/05/16 01:36:13;;;;;;;;;;;18.40;99.90;;;;;;5034753;28;19913;-69
2022/05/16 01:38:39;;;;;;;;;;;18.40;99.90;;;;;;5029967;28;20382;-67
2022/05/16 01:41:09;;;;;;;;;;;18.40;99.90;;;;;;5034488;28;19908;-67
2022/05/16 01:43:36;;;;;;;;;;;18.40;99.90;;;;;;5036840;28;19913;-66
2022/05/16 01:46:02;;;;;;;;;;;18.40;99.90;;;;;;5032150;28;19917;-67
2022/05/16 01:48:30;;;;;;;;;;;18.40;99.90;;;;;;5033220;28;20350;-67
2022/05/16 01:51:04;;;;;;;;;;;18.40;99.90;;;;;;5028442;28;19925;-67
2022/05/16 01:53:29;;;;;;;;;;;18.40;99.90;;;;;;5034836;28;19914;-68
2022/05/16 01:55:55;;;;;;;;;;;18.40;99.90;;;;;;5031965;28;20405;-67
2022/05/16 01:58:21;;;;;;;;;;;18.40;99.90;;;;;;5029794;28;20436;-66
2022/05/16 02:00:47;;;;;;;;;;;18.40;99.90;;;;;;5037000;28;20004;-67
2022/05/16 02:03:14;;;;;;;;;;;18.40;99.90;;;;;;5028991;28;19917;-66
2022/05/16 02:05:41;;;;;;;;;;;18.40;99.90;;;;;;5030664;28;19917;-66
2022/05/16 02:08:07;;;;;;;;;;;18.40;99.90;;;;;;5032048;28;19924;-67
2022/05/16 02:10:33;;;;;;;;;;;18.30;99.90;;;;;;5028281;28;19909;-65
2022/05/16 02:12:59;;;;;;;;;;;18.30;99.90;;;;;;5028982;28;19924;-67
2022/05/16 02:15:26;;;;;;;;;;;18.30;99.90;;;;;;5027632;28;19967;-66
2022/05/16 02:17:51;;;;;;;;;;;18.30;99.90;;;;;;5034289;28;19921;-66
2022/05/16 02:20:17;;;;;;;;;;;18.30;99.90;;;;;;5030173;28;19915;-67
2022/05/16 02:25:27;;;;;;;;;;;18.30;99.90;;;;;;5028416;28;19919;-67
2022/05/16 02:27:53;;;;;;;;;;;18.30;99.90;;;;;;5027127;28;19914;-66
2022/05/16 02:30:21;;;;;;;;;;;18.30;99.90;;;;;;5030174;28;20348;-66
2022/05/16 02:32:47;;;;;;;;;;;18.30;99.90;;;;;;5044934;28;19917;-66
2022/05/16 02:35:12;;;;;;;;;;;18.30;99.90;;;;;;5031571;28;19958;-67
2022/05/16 02:37:37;;;;;;;;;;;18.30;99.90;;;;;;5031925;28;20308;-67
2022/05/16 02:40:04;;;;;;;;;;;18.20;99.90;;;;;;5030479;28;19917;-67
2022/05/16 02:42:30;;;;;;;;;;;18.30;99.90;;;;;;5027654;28;19970;-66
2022/05/16 02:44:56;;;;;;;;;;;18.30;99.90;;;;;;5027312;28;19929;-66
2022/05/16 02:47:22;;;;;;;;;;;18.20;99.90;;;;;;5033098;28;19916;-67
2022/05/16 02:49:48;;;;;;;;;;;18.20;99.90;;;;;;5030852;28;20397;-66
2022/05/16 02:52:14;;;;;;;;;;;18.20;99.90;;;;;;5027068;28;19917;-67
2022/05/16 02:54:39;;;;;;;;;;;18.20;99.90;;;;;;5033683;28;20271;-64
2022/05/16 02:57:06;;;;;;;;;;;18.20;99.90;;;;;;5028875;28;19964;-66
2022/05/16 02:59:34;;;;;;;;;;;18.20;99.90;;;;;;5027172;28;19913;-65
2022/05/16 03:02:00;;;;;;;;;;;18.20;99.90;;;;;;5031317;28;19913;-67
2022/05/16 03:04:26;;;;;;;;;;;18.20;99.90;;;;;;5029323;28;19917;-67
2022/05/16 03:06:52;;;;;;;;;;;18.20;99.90;;;;;;5033308;28;19913;-67
2022/05/16 03:09:17;;;;;;;;;;;18.30;99.90;;;;;;5036047;28;19921;-68
2022/05/16 03:11:44;;;;;;;;;;;18.30;99.90;;;;;;5031418;28;20367;-68
2022/05/16 03:14:10;;;;;;;;;;;18.30;99.90;;;;;;5031064;28;19991;-68
2022/05/16 03:16:36;;;;;;;;;;;18.30;99.90;;;;;;5030463;28;19945;-66
2022/05/16 03:19:02;;;;;;;;;;;18.30;99.90;;;;;;5035124;28;20801;-68
2022/05/16 03:21:27;;;;;;;;;;;18.40;99.90;;;;;;5035658;28;19960;-67
2022/05/16 03:23:53;;;;;;;;;;;18.40;99.90;;;;;;5031911;28;19921;-67
2022/05/16 03:26:18;;;;;;;;;;;18.40;99.90;;;;;;5029202;28;19920;-67
2022/05/16 03:28:44;;;;;;;;;;;18.40;99.90;;;;;;5029720;28;19921;-67
2022/05/16 03:31:10;;;;;;;;;;;18.50;99.90;;;;;;5032936;28;19917;-66
2022/05/16 03:33:35;;;;;;;;;;;18.50;99.90;;;;;;5029762;28;19913;-66
2022/05/16 03:36:01;;;;;;;;;;;18.40;99.90;;;;;;5033295;28;19920;-67
2022/05/16 03:41:12;;;;;;;;;;;18.40;99.90;;;;;;5041910;28;19917;-66
2022/05/16 03:43:38;;;;;;;;;;;18.40;99.90;;;;;;5027173;28;19909;-63
2022/05/16 03:46:04;;;;;;;;;;;18.40;99.90;;;;;;5027145;28;20674;-67
2022/05/16 03:48:30;;;;;;;;;;;18.40;99.90;;;;;;5032763;28;20015;-67
2022/05/16 03:50:56;;;;;;;;;;;18.30;99.90;;;;;;5026618;28;20165;-68
2022/05/16 03:53:21;;;;;;;;;;;18.40;99.90;;;;;;5033645;28;20507;-68
2022/05/16 03:55:47;;;;;;;;;;;18.30;99.90;;;;;;5028936;28;19955;-67
2022/05/16 03:58:12;;;;;;;;;;;18.30;99.90;;;;;;5033632;28;20004;-68
2022/05/16 04:00:38;;;;;;;;;;;18.40;99.90;;;;;;5029565;28;19924;-68
2022/05/16 04:03:03;;;;;;;;;;;18.30;99.90;;;;;;5025906;28;19921;-67
2022/05/16 04:05:29;;;;;;;;;;;18.30;99.90;;;;;;5030305;28;20000;-67
2022/05/16 04:07:54;;;;;;;;;;;18.30;99.90;;;;;;5042257;28;19949;-67
2022/05/16 04:10:20;;;;;;;;;;;18.20;99.90;;;;;;5030505;28;19928;-68
2022/05/16 04:12:46;;;;;;;;;;;18.20;99.90;;;;;;5031421;28;19917;-67
2022/05/16 04:15:13;;;;;;;;;;;18.20;99.90;;;;;;5026813;28;20305;-67
2022/05/16 04:17:39;;;;;;;;;;;18.20;99.90;;;;;;5025631;28;20039;-67
2022/05/16 04:20:06;;;;;;;;;;;18.20;99.90;;;;;;5033241;28;19909;-67
2022/05/16 04:22:32;;;;;;;;;;;18.20;99.90;;;;;;5029644;28;20400;-67
2022/05/16 04:24:57;;;;;;;;;;;18.20;99.90;;;;;;5029466;28;19914;-66
2022/05/16 04:27:23;;;;;;;;;;;18.20;99.90;;;;;;5029940;28;19924;-67
2022/05/16 04:29:48;;;;;;;;;;;18.20;99.90;;;;;;5035191;28;19925;-67
2022/05/16 04:32:14;;;;;;;;;;;18.20;99.90;;;;;;5050859;28;19909;-68
2022/05/16 04:34:39;;;;;;;;;;;18.20;99.90;;;;;;5030976;28;20354;-66
2022/05/16 04:37:05;;;;;;;;;;;18.20;99.90;;;;;;5029367;28;19917;-67
2022/05/16 04:39:30;;;;;;;;;;;18.20;99.90;;;;;;5032835;28;20504;-67
2022/05/16 04:44:40;;;;;;;;;;;18.10;99.90;;;;;;5031471;28;19941;-66
2022/05/16 04:47:06;;;;;;;;;;;18.20;99.90;;;;;;5033931;28;19913;-63
2022/05/16 04:49:32;;;;;;;;;;;18.20;99.90;;;;;;5033273;28;19935;-67
2022/05/16 04:51:58;;;;;;;;;;;18.20;99.90;;;;;;5032690;28;19913;-67
2022/05/16 04:54:24;;;;;;;;;;;18.20;99.90;;;;;;5029379;28;20354;-67
2022/05/16 04:56:51;;;;;;;;;;;18.20;99.90;;;;;;5031969;28;19917;-65
2022/05/16 04:59:20;;;;;;;;;;;18.20;99.90;;;;;;5032887;28;19913;-63
2022/05/16 05:01:46;;;;;;;;;;;18.20;99.90;;;;;;5033656;28;19909;-67
2022/05/16 05:04:12;;;;;;;;;;;18.20;99.90;;;;;;5031492;28;19913;-67
2022/05/16 05:06:37;;;;;;;;;;;18.20;99.90;;;;;;5032478;28;20393;-67
2022/05/16 05:09:03;;;;;;;;;;;18.20;99.90;;;;;;5032480;28;19921;-67
2022/05/16 05:16:57;;;;;;;;;;;18.30;99.90;;;;;;5033388;28;19916;-66
2022/05/16 05:19:22;;;;;;;;;;;18.30;99.90;;;;;;5032365;28;19913;-67
2022/05/16 05:21:48;;;;;;;;;;;18.30;99.90;;;;;;5029795;28;20319;-67
2022/05/16 05:24:13;;;;;;;;;;;18.30;99.90;;;;;;5038769;28;20012;-68
2022/05/16 05:26:39;;;;;;;;;;;18.30;99.90;;;;;;5029089;28;20282;-65
2022/05/16 05:29:05;;;;;;;;;;;18.30;99.90;;;;;;5037748;28;19917;-67
2022/05/16 05:31:30;;;;;;;;;;;18.30;99.90;;;;;;5027942;28;20363;-68
2022/05/16 05:33:56;;;;;;;;;;;18.30;99.90;;;;;;5032225;28;19970;-66
2022/05/16 05:36:22;;;;;;;;;;;18.30;99.90;;;;;;5038377;28;19921;-66
2022/05/16 05:38:51;;;;;;;;;;;18.40;99.90;;;;;;5031368;28;19917;-66
2022/05/16 05:41:17;;;;;;;;;;;18.40;99.90;;;;;;5033051;28;19913;-66
2022/05/16 05:43:43;;;;;;;;;;;18.40;99.90;;;;;;5040716;28;19944;-66
2022/05/16 05:46:08;;;;;;;;;;;18.50;99.90;;;;;;5031326;28;19940;-67
2022/05/16 05:48:34;;;;;;;;;;;18.60;99.90;;;;;;5035118;28;19936;-66
2022/05/16 05:50:59;;;;;;;;;;;18.60;99.90;;;;;;5028713;28;19920;-64
2022/05/16 05:53:25;;;;;;;;;;;18.70;99.90;;;;;;5029930;28;19963;-66
2022/05/16 05:55:51;;;;;;;;;;;18.70;99.90;;;;;;5031695;28;19913;-67
2022/05/16 05:58:16;;;;;;;;;;;18.70;99.90;;;;;;5029564;28;19917;-67
2022/05/16 06:00:42;;;;;;;;;;;18.80;99.90;;;;;;5032939;28;19913;-65
2022/05/16 06:03:08;;;;;;;;;;;18.90;99.90;;;;;;5027858;28;19917;-68
2022/05/16 06:05:34;;;;;;;;;;;18.90;99.90;;;;;;5032176;28;19928;-67
2022/05/16 06:07:59;;;;;;;;;;;18.90;99.90;;;;;;5032683;28;20390;-69
2022/05/16 06:10:25;;;;;;;;;;;18.90;99.90;;;;;;5027100;28;19928;-67
2022/05/16 06:12:50;;;;;;;;;;;18.90;99.90;;;;;;5025011;28;19971;-62
2022/05/16 06:15:16;;;;;;;;;;;18.90;99.90;;;;;;5028169;28;20282;-64
2022/05/16 06:17:43;;;;;;;;;;;18.90;99.90;;;;;;5040603;28;19922;-64
2022/05/16 06:20:10;;;;;;;;;;;18.90;99.90;;;;;;5036571;28;19921;-62
2022/05/16 06:22:37;;;;;;;;;;;18.90;99.90;;;;;;5034932;28;19913;-65
2022/05/16 06:25:32;;;;;;;;;;;18.90;99.90;;;;;;5027906;28;19936;-64
2022/05/16 06:28:03;;;;;;;;;;;19.00;99.90;;;;;;5036501;28;19913;-66
2022/05/16 06:30:28;;;;;;;;;;;19.00;99.90;;;;;;5037987;28;20056;-62
2022/05/16 06:32:54;;;;;;;;;;;19.00;99.90;;;;;;5036468;28;20008;-64
2022/05/16 06:35:20;;;;;;;;;;;19.10;99.90;;;;;;5044114;28;19908;-65
2022/05/16 06:37:45;;;;;;;;;;;19.10;99.90;;;;;;5030199;28;19917;-67
2022/05/16 06:40:12;;;;;;;;;;;19.20;99.90;;;;;;5039972;28;19992;-65
2022/05/16 06:42:38;;;;;;;;;;;19.10;99.90;;;;;;5034553;28;20389;-62
2022/05/16 06:45:04;;;;;;;;;;;19.20;99.90;;;;;;5035746;28;19908;-61
2022/05/16 06:47:30;;;;;;;;;;;19.20;99.90;;;;;;5042878;28;19920;-63
2022/05/16 06:49:55;;;;;;;;;;;19.20;99.90;;;;;;5038203;28;19920;-61
2022/05/16 06:52:21;;;;;;;;;;;19.20;99.90;;;;;;5039729;28;19999;-61
2022/05/16 06:54:47;;;;;;;;;;;19.20;99.90;;;;;;5033855;28;19921;-61
2022/05/16 06:57:12;;;;;;;;;;;19.20;99.90;;;;;;5023858;28;19920;-61
2022/05/16 06:59:38;;;;;;;;;;;19.20;99.90;;;;;;5021732;28;19917;-62
2022/05/16 07:02:05;;;;;;;;;;;19.30;99.90;;;;;;5021558;28;19918;-60
2022/05/16 07:04:30;;;;;;;;;;;19.30;99.90;;;;;;5024291;28;19916;-60
2022/05/16 07:06:57;;;;;;;;;;;19.30;99.90;;;;;;5024778;28;19923;-61
2022/05/16 07:09:23;;;;;;;;;;;19.30;99.90;;;;;;5021991;28;20394;-62
2022/05/16 07:11:48;;;;;;;;;;;19.30;99.90;;;;;;5023366;28;19959;-62
2022/05/16 07:14:14;;;;;;;;;;;19.30;99.90;;;;;;5020063;28;19913;-61
2022/05/16 07:16:39;;;;;;;;;;;19.40;99.90;;;;;;5024148;28;19914;-61
2022/05/16 07:19:06;;;;;;;;;;;19.40;99.90;;;;;;5024727;28;20395;-61
2022/05/16 07:21:32;;;;;;;;;;;19.60;99.90;;;;;;5023870;28;19945;-61
2022/05/16 07:23:58;;;;;;;;;;;19.50;99.90;;;;;;5021974;28;19952;-61
2022/05/16 07:29:07;;;;;;;;;;;19.50;99.90;;;;;;5029905;28;19979;-61
2022/05/16 07:31:33;;;;;;;;;;;19.60;99.90;;;;;;5019465;28;19913;-63
2022/05/16 07:34:00;;;;;;;;;;;19.60;99.90;;;;;;5019856;28;20425;-61
2022/05/16 07:36:26;;;;;;;;;;;19.60;99.90;;;;;;5024265;28;19952;-61
2022/05/16 07:38:52;;;;;;;;;;;19.60;99.90;;;;;;5023127;28;20006;-63
2022/05/16 07:41:18;;;;;;;;;;;19.70;99.90;;;;;;5024400;28;20285;-61
2022/05/16 07:43:43;;;;;;;;;;;19.70;99.90;;;;;;5022721;28;19913;-60
2022/05/16 07:46:09;;;;;;;;;;;19.80;99.90;;;;;;5025352;28;19924;-61
2022/05/16 07:48:34;;;;;;;;;;;19.90;99.90;;;;;;5020404;28;19928;-62
2022/05/16 07:51:00;;;;;;;;;;;19.90;99.90;;;;;;5016810;28;19918;-62
2022/05/16 07:53:26;;;;;;;;;;;19.90;99.90;;;;;;5026048;28;19925;-60
2022/05/16 07:55:53;;;;;;;;;;;19.90;99.90;;;;;;5024705;28;19916;-61
2022/05/16 07:58:22;;;;;;;;;;;19.90;99.90;;;;;;5025584;28;19921;-61
2022/05/16 08:00:50;;;;;;;;;;;19.90;99.90;;;;;;5025499;28;20594;-63
2022/05/16 08:03:18;;;;;;;;;;;20.00;99.90;;;;;;5024405;28;19913;-61
2022/05/16 08:05:43;;;;;;;;;;;20.00;99.90;;;;;;5028486;28;19927;-62
2022/05/16 08:10:53;;;;;;;;;;;20.10;99.90;;;;;;5031060;28;20012;-62
2022/05/16 08:13:19;;;;;;;;;;;20.10;99.90;;;;;;5024133;28;20003;-61
2022/05/16 08:15:45;;;;;;;;;;;20.10;99.90;;;;;;5026111;28;20020;-61
2022/05/16 08:18:12;;;;;;;;;;;20.20;99.90;;;;;;5025720;28;19913;-62
2022/05/16 08:20:39;;;;;;;;;;;20.20;99.90;;;;;;5028802;28;19913;-63
2022/05/16 08:23:04;;;;;;;;;;;20.20;99.90;;;;;;5030339;28;19963;-63
2022/05/16 08:25:30;;;;;;;;;;;20.30;99.90;;;;;;5027386;28;19952;-62
2022/05/16 08:27:56;;;;;;;;;;;20.30;99.90;;;;;;5029056;28;19920;-63
2022/05/16 08:30:23;;;;;;;;;;;20.30;99.90;;;;;;5025122;28;19921;-62
2022/05/16 08:32:49;;;;;;;;;;;20.30;99.90;;;;;;5021762;28;20320;-63
2022/05/16 08:35:15;;;;;;;;;;;20.30;99.90;;;;;;5026361;28;19913;-62
2022/05/16 08:40:44;;;;;;;;;;;20.30;99.90;;;;;;5027414;28;19940;-60
2022/05/16 08:43:15;;;;;;;;;;;20.40;99.90;;;;;;5023395;28;19963;-61
2022/05/16 08:45:44;;;;;;;;;;;20.40;99.90;;;;;;5028521;28;20066;-60
2022/05/16 08:48:22;;;;;;;;;;;20.40;99.90;;;;;;5019670;28;20390;-62
2022/05/16 08:50:59;;;;;;;;;;;20.40;99.90;;;;;;5021719;28;19944;-62
2022/05/16 08:53:27;;;;;;;;;;;20.40;99.90;;;;;;5026226;28;19917;-62
2022/05/16 08:55:57;;;;;;;;;;;20.40;99.90;;;;;;5024839;28;19940;-60
2022/05/16 08:58:26;;;;;;;;;;;20.40;99.90;;;;;;5025638;28;19975;-63
2022/05/16 09:01:03;;;;;;;;;;;20.40;99.90;;;;;;5026449;28;20281;-61
2022/05/16 09:03:37;;;;;;;;;;;20.50;99.90;;;;;;5031543;28;19914;-60
2022/05/16 09:06:11;;;;;;;;;;;20.40;99.90;;;;;;5021179;28;19913;-63
2022/05/16 09:08:58;;;;;;;;;;;20.40;99.90;;;;;;5021012;28;19925;-62
2022/05/16 09:11:30;;;;;;;;;;;20.40;99.90;;;;;;5025226;28;19921;-62
2022/05/16 09:14:04;;;;;;;;;;;20.40;99.90;;;;;;5024890;28;20830;-61
2022/05/16 09:16:29;;;;;;;;;;;20.30;99.90;;;;;;5027254;28;19921;-62
2022/05/16 09:18:55;;;;;;;;;;;20.30;99.90;;;;;;5023859;28;19931;-61
2022/05/16 09:21:20;;;;;;;;;;;20.40;99.90;;;;;;5022641;28;20333;-62
2022/05/16 09:23:52;;;;;;;;;;;20.30;99.90;;;;;;5029380;28;20020;-62
2022/05/16 09:26:17;;;;;;;;;;;20.40;99.90;;;;;;5027958;28;19917;-61
2022/05/16 09:28:46;;;;;;;;;;;20.40;99.90;;;;;;5027875;28;19971;-61
2022/05/16 09:31:20;;;;;;;;;;;20.40;99.90;;;;;;5023381;28;19959;-60
2022/05/16 09:33:47;;;;;;;;;;;20.40;99.90;;;;;;5019116;28;19924;-62
2022/05/16 09:36:14;;;;;;;;;;;20.40;99.90;;;;;;5028211;28;20372;-61
2022/05/16 09:38:44;;;;;;;;;;;20.40;99.90;;;;;;5022804;28;19948;-61
2022/05/16 09:41:14;;;;;;;;;;;20.50;99.90;;;;;;5024757;28;19971;-63
2022/05/16 09:43:41;;;;;;;;;;;20.40;99.90;;;;;;5026820;28;20349;-61
2022/05/16 09:46:17;;;;;;;;;;;20.40;99.90;;;;;;5024341;28;19913;-61
2022/05/16 09:48:43;;;;;;;;;;;20.40;99.90;;;;;;5024901;28;20008;-60
2022/05/16 09:51:09;;;;;;;;;;;20.40;99.90;;;;;;5024282;28;20750;-61
2022/05/16 09:53:36;;;;;;;;;;;20.40;99.90;;;;;;5024099;28;19996;-63
2022/05/16 09:56:24;;;;;;;;;;;20.40;99.90;;;;;;5027729;28;19918;-62
2022/05/16 09:58:51;;;;;;;;;;;20.40;99.90;;;;;;5017929;28;20377;-63
2022/05/16 10:01:37;;;;;;;;;;;20.30;99.90;;;;;;5020817;28;20530;-61
2022/05/16 10:04:12;;;;;;;;;;;20.20;99.90;;;;;;5024391;28;19913;-61
2022/05/16 10:06:41;;;;;;;;;;;20.20;99.90;;;;;;5022302;28;20007;-62
2022/05/16 10:09:08;;;;;;;;;;;20.20;99.90;;;;;;5023519;28;19921;-62
2022/05/16 10:11:34;;;;;;;;;;;20.20;99.90;;;;;;5026608;28;19913;-61
2022/05/16 10:13:59;;;;;;;;;;;20.20;99.90;;;;;;5023487;28;19913;-61
2022/05/16 10:16:26;;;;;;;;;;;20.20;99.90;;;;;;5023618;28;19917;-61
2022/05/16 10:18:54;;;;;;;;;;;20.10;99.90;;;;;;5025046;28;19919;-62
2022/05/16 10:21:29;;;;;;;;;;;20.10;99.90;;;;;;5022811;28;19913;-61
2022/05/16 10:23:55;;;;;;;;;;;20.20;99.90;;;;;;5018471;28;21032;-61
2022/05/16 10:26:22;;;;;;;;;;;20.30;99.90;;;;;;5023608;28;20028;-60
2022/05/16 10:28:51;;;;;;;;;;;20.30;99.90;;;;;;5024148;28;20297;-61
2022/05/16 10:34:12;;;;;;;;;;;20.30;99.90;;;;;;5020650;28;20121;-60
2022/05/16 10:36:38;;;;;;;;;;;20.40;99.90;;;;;;5023704;28;19974;-62
2022/05/16 10:39:09;;;;;;;;;;;20.40;99.90;;;;;;5021694;28;19917;-61
2022/05/16 10:41:38;;;;;;;;;;;20.50;99.90;;;;;;5020339;28;19925;-63
2022/05/16 10:44:22;;;;;;;;;;;20.50;99.90;;;;;;5024768;28;20443;-61
2022/05/16 10:46:59;;;;;;;;;;;20.60;99.90;;;;;;5025696;28;19917;-61
2022/05/16 10:49:29;;;;;;;;;;;20.70;99.90;;;;;;5021094;28;19932;-62
2022/05/16 10:51:54;;;;;;;;;;;20.80;99.90;;;;;;5019436;28;19920;-61
2022/05/16 10:54:21;;;;;;;;;;;21.00;99.90;;;;;;5022432;28;20008;-62
2022/05/16 10:56:53;;;;;;;;;;;21.10;99.90;;;;;;5020359;28;19913;-61
2022/05/16 10:59:25;;;;;;;;;;;21.10;99.90;;;;;;5018444;28;19917;-62
2022/05/16 11:01:57;;;;;;;;;;;21.10;99.90;;;;;;5022999;28;19913;-61
2022/05/16 11:04:32;;;;;;;;;;;21.20;99.90;;;;;;5025005;28;19918;-61
2022/05/16 11:07:16;;;;;;;;;;;21.30;99.90;;;;;;5025903;28;19929;-63
2022/05/16 11:09:41;;;;;;;;;;;21.40;99.90;;;;;;5021514;28;19925;-60
2022/05/16 11:12:14;;;;;;;;;;;21.40;99.90;;;;;;5021739;28;20382;-61
2022/05/16 11:14:52;;;;;;;;;;;21.40;99.90;;;;;;5016931;28;19927;-62
2022/05/16 11:17:32;;;;;;;;;;;21.50;99.90;;;;;;5022572;28;19940;-62
2022/05/16 11:19:58;;;;;;;;;;;21.50;99.90;;;;;;5021818;28;20399;-62
2022/05/16 11:22:30;;;;;;;;;;;21.60;99.90;;;;;;5016703;28;19949;-62
2022/05/16 11:25:16;;;;;;;;;;;21.70;99.90;;;;;;5018713;28;19928;-61
2022/05/16 11:27:48;;;;;;;;;;;21.70;99.90;;;;;;5023242;28;20050;-60
2022/05/16 11:30:23;;;;;;;;;;;21.70;99.90;;;;;;5023051;28;19977;-61
2022/05/16 11:33:04;;;;;;;;;;;21.80;99.90;;;;;;5021102;28;19920;-62
2022/05/16 11:35:49;;;;;;;;;;;21.90;99.90;;;;;;5023043;28;19925;-63
2022/05/16 11:38:14;;;;;;;;;;;21.90;99.90;;;;;;5024918;28;19917;-61
2022/05/16 11:40:43;;;;;;;;;;;21.90;99.90;;;;;;5023902;28;19913;-60
2022/05/16 11:43:32;;;;;;;;;;;21.80;99.90;;;;;;5026443;28;19964;-62
2022/05/16 11:46:00;;;;;;;;;;;21.80;99.90;;;;;;5023492;28;20308;-62
2022/05/16 11:48:36;;;;;;;;;;;21.90;99.90;;;;;;5022945;28;19921;-63
2022/05/16 11:51:04;;;;;;;;;;;21.90;99.90;;;;;;5016994;28;20222;-61
2022/05/16 11:53:50;;;;;;;;;;;21.90;99.90;;;;;;5024492;28;19975;-62
2022/05/16 12:02:22;;;;;;;;;;;21.90;99.70;;;;;;5025468;28;20013;-61
2022/05/16 12:04:49;;;;;;;;;;;21.90;99.10;;;;;;5026850;28;19967;-63
2022/05/16 12:07:18;;;;;;;;;;;21.90;98.60;;;;;;5022260;28;19919;-62
2022/05/16 12:09:50;;;;;;;;;;;21.90;99.10;;;;;;5019027;28;19921;-61
2022/05/16 12:12:34;;;;;;;;;;;22.00;99.20;;;;;;5025361;28;20286;-61
2022/05/16 12:15:18;;;;;;;;;;;21.90;97.80;;;;;;5023990;28;19916;-62
2022/05/16 12:17:51;;;;;;;;;;;21.90;97.90;;;;;;5018630;28;20004;-59
2022/05/16 12:20:31;;;;;;;;;;;22.00;98.00;;;;;;5023342;28;19913;-61
2022/05/16 12:22:57;;;;;;;;;;;22.10;97.50;;;;;;5023977;28;20389;-60
2022/05/16 12:25:26;;;;;;;;;;;22.10;97.30;;;;;;5021603;28;19956;-60
2022/05/16 12:28:10;;;;;;;;;;;22.10;96.70;;;;;;5018025;28;19917;-61
2022/05/16 12:30:42;;;;;;;;;;;22.10;97.30;;;;;;5024786;28;19959;-61
2022/05/16 12:33:23;;;;;;;;;;;22.20;97.00;;;;;;5020813;28;20389;-60
2022/05/16 12:35:49;;;;;;;;;;;22.30;97.40;;;;;;5020104;28;19924;-60
2022/05/16 12:38:15;;;;;;;;;;;22.50;97.00;;;;;;5026000;28;19913;-60
2022/05/16 12:40:47;;;;;;;;;;;22.60;97.40;;;;;;5027986;28;19996;-59
2022/05/16 12:43:18;;;;;;;;;;;22.80;96.80;;;;;;5027495;28;19919;-60
2022/05/16 12:46:02;;;;;;;;;;;22.90;96.70;;;;;;5029114;28;20387;-60
2022/05/16 12:48:46;;;;;;;;;;;22.90;96.70;;;;;;5029487;28;19984;-61
2022/05/16 12:51:38;;;;;;;;;;;23.20;96.30;;;;;;5020622;28;19921;-60
2022/05/16 12:54:07;;;;;;;;;;;23.30;96.50;;;;;;5027091;28;20000;-60
2022/05/16 12:56:45;;;;;;;;;;;23.50;96.10;;;;;;5026153;28;19917;-61
2022/05/16 12:59:10;;;;;;;;;;;23.60;96.10;;;;;;5025778;28;20459;-59
2022/05/16 13:01:40;;;;;;;;;;;23.80;94.20;;;;;;5025957;28;19957;-60
2022/05/16 13:04:24;;;;;;;;;;;23.90;94.00;;;;;;5028814;28;19993;-60
2022/05/16 13:06:49;;;;;;;;;;;24.00;94.40;;;;;;5025885;28;19912;-60
2022/05/16 13:09:33;;;;;;;;;;;24.10;94.90;;;;;;5019500;28;20283;-60
2022/05/16 13:12:05;;;;;;;;;;;24.30;94.50;;;;;;5026765;28;20004;-60
2022/05/16 13:14:48;;;;;;;;;;;24.20;94.10;;;;;;5029364;28;20020;-61
2022/05/16 13:17:25;;;;;;;;;;;24.30;94.30;;;;;;5028942;28;19921;-60
2022/05/16 13:19:52;;;;;;;;;;;24.40;94.40;;;;;;5026474;28;19917;-59
2022/05/16 13:22:19;;;;;;;;;;;24.50;94.40;;;;;;5023647;28;20016;-60
2022/05/16 13:24:45;;;;;;;;;;;24.60;93.80;;;;;;5027809;28;19913;-61
2022/05/16 13:30:05;;;;;;;;;;;24.70;93.60;;;;;;5024627;28;19967;-60
2022/05/16 13:32:31;;;;;;;;;;;24.70;93.20;;;;;;5021124;28;19955;-60
2022/05/16 13:34:58;;;;;;;;;;;24.70;92.60;;;;;;5025462;28;19960;-60
2022/05/16 13:37:43;;;;;;;;;;;24.70;92.60;;;;;;5026222;28;19975;-59
2022/05/16 13:40:14;;;;;;;;;;;24.80;92.00;;;;;;5025281;28;19913;-60
2022/05/16 13:42:43;;;;;;;;;;;24.80;91.30;;;;;;5022146;28;19913;-60
2022/05/16 13:45:09;;;;;;;;;;;24.80;90.40;;;;;;5022176;28;19921;-61
2022/05/16 13:47:38;;;;;;;;;;;24.80;90.10;;;;;;5027441;28;19917;-59
2022/05/16 13:50:04;;;;;;;;;;;24.80;90.30;;;;;;5027818;28;19924;-61
2022/05/16 13:52:36;;;;;;;;;;;24.80;90.40;;;;;;5025848;28;19916;-60
2022/05/16 13:55:05;;;;;;;;;;;24.80;90.00;;;;;;5026806;28;19913;-59
2022/05/16 13:57:31;;;;;;;;;;;24.80;90.10;;;;;;5026328;28;19913;-60
2022/05/16 14:00:15;;;;;;;;;;;24.90;88.60;;;;;;5022766;28;19925;-60
2022/05/16 14:02:42;;;;;;;;;;;24.80;89.50;;;;;;5022202;28;19921;-61
2022/05/16 14:05:19;;;;;;;;;;;24.80;89.40;;;;;;5023012;28;20004;-59
2022/05/16 14:07:45;;;;;;;;;;;24.70;86.40;;;;;;5025151;28;19929;-59
2022/05/16 14:10:12;;;;;;;;;;;24.70;87.80;;;;;;5024606;28;19921;-60
2022/05/16 14:12:43;;;;;;;;;;;24.60;87.30;;;;;;5028564;28;20483;-60
2022/05/16 14:15:18;;;;;;;;;;;24.60;86.00;;;;;;5021037;28;20000;-60
2022/05/16 14:17:55;;;;;;;;;;;24.70;86.40;;;;;;5020010;28;19967;-59
2022/05/16 14:20:20;;;;;;;;;;;24.70;86.10;;;;;;5025965;28;19914;-59
2022/05/16 14:22:47;;;;;;;;;;;24.90;84.00;;;;;;5025037;28;20397;-60
2022/05/16 14:25:33;;;;;;;;;;;24.90;82.80;;;;;;5023475;28;20058;-60
2022/05/16 14:28:01;;;;;;;;;;;24.90;84.30;;;;;;5015346;28;19913;-60
2022/05/16 14:30:28;;;;;;;;;;;24.90;84.70;;;;;;5023366;28;20317;-61
2022/05/16 14:33:02;;;;;;;;;;;24.90;83.90;;;;;;5024249;28;19959;-60
2022/05/16 14:35:28;;;;;;;;;;;25.00;83.50;;;;;;5025302;28;20319;-62
2022/05/16 14:37:54;;;;;;;;;;;25.00;82.00;;;;;;5024999;28;19920;-60
2022/05/16 14:40:22;;;;;;;;;;;25.00;83.30;;;;;;5024032;28;19947;-60
2022/05/16 14:43:00;;;;;;;;;;;25.00;82.10;;;;;;5024697;28;19944;-59
2022/05/16 14:48:27;;;;;;;;;;;24.90;79.50;;;;;;5025908;28;20555;-60
2022/05/16 14:50:52;;;;;;;;;;;24.90;80.50;;;;;;5024356;28;20435;-60
2022/05/16 14:53:18;;;;;;;;;;;24.90;80.50;;;;;;5026554;28;19928;-57
2022/05/16 14:55:46;;;;;;;;;;;24.90;78.50;;;;;;5023056;28;20368;-60
2022/05/16 14:58:12;;;;;;;;;;;24.80;77.50;;;;;;5024684;28;19917;-59
2022/05/16 15:06:07;;;;;;;;;;;24.80;78.00;;;;;;5021404;28;20355;-60
2022/05/16 15:08:44;;;;;;;;;;;24.80;78.10;;;;;;5020761;28;19921;-60
2022/05/16 15:11:10;;;;;;;;;;;24.80;75.20;;;;;;5022087;28;20480;-59